Latest Coastal Weather Observations for Cape Sorell

IDT60701

Issued at 4:32 am EDT Tuesday 22 October 2019 (issued every 10 minutes, with the page automatically refreshed every 10 minutes)

About coastal observations | Map of coastal stations | Coastal observations for TAS | Marine services | Other Formats
Station Details ID: 097000 Name: CAPE SORELL Lat: -42.20 Lon: 145.17 Height: 19.3 m
Data from the previous 72 hours. | See also: Recent months at Cape Sorell
Date/Time
EDT
Wind Sea
Height
m
Swell Vis
km
Cloud Weather Temp
°C
Press
hPa
Rain since
9am
mm
Dir  Spd
kts
Gust
kts
Height
m
Period
s
Dir
22/04:30am SW 4 6 - - - - - - - 9.3 1024.7 0.2
22/04:00am SW 9 10 - - - - - - - 9.7 1024.8 0.2
22/03:30am SW 5 7 - - - - - - - 9.5 1024.8 0.2
22/03:00am WSW 5 6 - - - - - - - 9.5 1024.9 0.2
22/02:30am WSW 9 10 - - - - - - - 10.0 1025.1 0.2
22/02:00am SW 9 10 - - - - - - - 10.4 1025.3 0.2
22/01:30am WSW 7 8 - - - - - - - 10.2 1025.4 0.2
22/01:00am WSW 4 6 - - - - - - - 9.9 1025.6 0.2
22/12:30am WSW 3 5 - - - - - - - 10.0 1025.8 0.2
22/12:00am WSW 5 6 - - - - - - - 10.0 1025.9 0.2
 
Date/Time
EDT
Wind Sea
Height
m
Swell Vis
km
Cloud Weather Temp
°C
Press
hPa
Rain since
9am
mm
Dir  Spd
kts
Gust
kts
Height
m
Period
s
Dir
21/11:30pm W 6 12 - - - - - - - 9.8 1025.9 0.2
21/11:00pm WSW 8 11 - - - - - - - 9.8 1025.9 0.2
21/10:30pm SSW 5 7 - - - - - - - 10.4 1026.0 0.2
21/10:00pm W 5 8 - - - - - - - 10.2 1026.1 0.2
21/09:30pm WSW 7 9 - - - - - - - 9.8 1026.1 0.2
21/09:00pm WSW 12 14 - - - - - - - 10.3 1026.0 0.2
21/08:30pm W 3 5 - - - - - - - 10.2 1025.7 0.2
21/08:00pm W 6 8 - - - - - - - 10.2 1025.8 0.2
21/07:30pm W 8 12 - - - - - - - 10.3 1025.8 0.2
21/07:00pm WSW 9 12 - - - - - - - 10.9 1025.7 0.2
21/06:30pm WSW 9 13 - - - - - - - 11.7 1025.7 0.2
21/06:00pm W 7 9 - - - - - - - 12.6 1025.6 0.2
21/05:30pm W 10 13 - - - - - - - 13.3 1025.4 0.2
21/05:00pm W 5 7 - - - - - - - 13.4 1025.5 0.2
21/04:30pm W 7 10 - - - - - - - 11.8 1025.6 0.2
21/04:00pm WNW 5 7 - - - - - - - 13.2 1025.7 0.2
21/03:30pm W 9 13 - - - - - - - 12.7 1025.9 0.2
21/03:00pm WNW 6 8 - - - - - - - 14.6 1025.9 0.2
21/02:30pm WSW 7 9 - - - - - - - 14.0 1025.9 0.2
21/02:00pm W 9 13 - - - - - - - 14.2 1025.9 0.2
21/01:30pm W 7 9 - - - - - - - 14.9 1025.9 0.2
21/01:00pm W 8 11 - - - - - - - 14.6 1026.1 0.2
21/12:30pm WNW 7 10 - - - - - - - 14.9 1026.2 0.2
21/12:00pm W 6 9 - - - - - - Rain 13.1 1026.4 0.2
21/11:30am WSW 7 9 - - - - - - - 13.0 1026.4 0.0
21/11:00am WSW 8 12 - - - - - - - 11.7 1026.5 0.0
21/10:30am W 8 13 - - - - - - - 12.4 1026.7 0.0
21/10:00am W 5 8 - - - - - - - 12.4 1026.7 0.0
21/09:30am W 8 11 - - - - - - - 11.6 1026.6 0.0
21/09:00am W 7 10 - - - - - - - 11.2 1026.4 1.4
21/08:30am W 7 10 - - - - - - - 10.8 1026.1 1.4
21/08:00am W 7 9 - - - - - - - 10.8 1025.8 1.4
21/07:30am WNW 6 8 - - - - - - - 9.9 1025.6 1.4
21/07:00am WSW 11 14 - - - - - - - 9.8 1025.3 1.4
21/06:30am W 5 8 - - - - - - - 10.0 1025.2 1.4
21/06:00am WSW 9 12 - - - - - - - 9.9 1024.9 1.2
21/05:30am W 9 12 - - - - - - - 9.8 1024.9 1.2
21/05:00am WSW 8 11 - - - - - - - 10.0 1024.6 1.2
21/04:30am W 8 11 - - - - - - - 10.0 1024.4 1.2
21/04:00am W 10 14 - - - - - - - 10.2 1024.2 0.8
21/03:30am W 10 14 - - - - - - - 10.0 1024.3 0.8
21/03:00am W 7 11 - - - - - - - 10.2 1024.2 0.8
21/02:30am WNW 9 13 - - - - - - - 10.2 1024.3 0.8
21/02:00am NW 8 10 - - - - - - - 9.9 1024.5 0.8
21/01:30am WNW 11 14 - - - - - - - 10.1 1024.7 0.8
21/01:00am NW 6 9 - - - - - - - 9.9 1024.6 0.8
21/12:30am WNW 8 11 - - - - - - - 10.1 1024.6 0.8
21/12:00am W 6 10 - - - - - - Recent precip. 9.8 1024.7 0.8
 
Date/Time
EDT
Wind Sea
Height
m
Swell Vis
km
Cloud Weather Temp
°C
Press
hPa
Rain since
9am
mm
Dir  Spd
kts
Gust
kts
Height
m
Period
s
Dir
20/11:30pm W 10 15 - - - - - - - 10.2 1024.8 0.8
20/11:00pm W 10 16 - - - - - - - 10.2 1024.6 0.6
20/10:30pm WSW 12 16 - - - - - - - 10.0 1024.4 0.6
20/10:00pm WSW 9 14 - - - - - - - 10.3 1024.4 0.6
20/09:30pm WSW 13 17 - - - - - - - 10.2 1024.1 0.6
20/09:00pm WSW 16 19 - - - - - - - 10.4 1023.7 0.6
20/08:30pm W 9 13 - - - - - - - 10.4 1023.4 0.6
20/08:00pm W 11 17 - - - - - - - 10.6 1022.9 0.6
20/07:30pm WSW 12 17 - - - - - - - 10.7 1022.6 0.4
20/07:00pm WSW 13 15 - - - - - - - 10.9 1022.0 0.4
20/06:30pm WSW 15 21 - - - - - - - 11.0 1021.6 0.4
20/06:00pm WSW 17 20 - - - - - - - 11.7 1021.1 0.4
20/05:30pm WSW 15 19 - - - - - - - 12.3 1020.7 0.4
20/05:00pm WSW 18 22 - - - - - - - 12.3 1020.5 0.4
20/04:30pm WSW 17 23 - - - - - - - 13.1 1019.9 0.4
20/04:00pm WSW 19 23 - - - - - - - 12.4 1019.8 0.4
20/03:30pm WSW 20 24 - - - - - - - 11.9 1019.3 0.4
20/03:00pm WSW 20 26 - - - - - - - 11.8 1019.1 0.4
20/02:30pm WSW 22 29 - - - - - - - 11.3 1018.9 0.4
20/02:00pm WSW 21 27 - - - - - - - 11.5 1019.0 0.4
20/01:30pm WSW 24 31 - - - - - - - 12.1 1018.6 0.4
20/01:00pm WSW 21 27 - - - - - - - 12.1 1018.4 0.4
20/12:30pm WSW 20 25 - - - - - - - 11.4 1018.5 0.4
20/12:00pm WSW 16 23 - - - - - - - 11.3 1018.7 0.0
20/11:30am WSW 17 25 - - - - - - - 11.1 1018.5 0.0
20/11:00am WSW 21 27 - - - - - - - 11.4 1018.2 0.0
20/10:30am W 21 27 - - - - - - - 11.3 1017.7 0.0
20/10:00am W 23 31 - - - - - - - 11.2 1016.8 0.0
20/09:30am W 21 29 - - - - - - - 11.2 1016.7 0.0
20/09:00am W 19 29 - - - - - - - 11.2 1016.2 2.6
20/08:30am W 18 29 - - - - - - - 11.2 1015.6 2.6
20/08:25am W 18 29 - - - - - - - 11.1 1015.5 2.6
20/08:00am W 20 29 - - - - - - - 11.1 1015.3 2.6
20/07:42am W 19 29 - - - - - - - 10.8 1014.9 2.6
20/07:30am W 19 26 - - - - - - - 11.2 1015.0 2.6
20/07:00am W 15 22 - - - - - - - 11.2 1014.6 2.6
20/06:30am WSW 20 27 - - - - - - - 11.0 1014.1 2.6
20/06:00am WSW 23 29 - - - - - - - 10.4 1014.0 2.6
20/05:33am W 19 31 - - - - - - - 11.1 1013.7 2.6
20/05:30am W 18 25 - - - - - - - 11.1 1013.7 2.6
20/05:00am WSW 22 27 - - - - - - - 10.9 1013.4 2.6
20/04:30am W 21 28 - - - - - - - 10.3 1013.3 2.6
20/04:00am WSW 19 27 - - - - - - - 10.4 1013.1 2.6
20/03:30am W 20 30 - - - - - - - 10.4 1013.3 2.6
20/03:23am W 16 27 - - - - - - - 10.6 1013.2 2.6
20/03:00am WSW 18 25 - - - - - - - 10.3 1013.2 2.6
20/02:30am WSW 19 26 - - - - - - - 10.1 1013.2 2.6
20/02:00am WSW 19 25 - - - - - - - 10.0 1013.3 2.6
20/01:34am W 19 29 - - - - - - - 10.2 1013.1 2.4
20/01:30am W 17 25 - - - - - - - 10.2 1013.1 2.4
20/01:00am W 18 26 - - - - - - - 9.7 1013.1 2.4
20/12:47am W 22 33 - - - - - - - 9.6 1013.2 2.4
20/12:30am W 20 29 - - - - - - - 10.3 1012.8 2.4
20/12:00am W 18 25 - - - - - - Recent precip. 9.9 1012.8 2.4
 
Date/Time
EDT
Wind Sea
Height
m
Swell Vis
km
Cloud Weather Temp
°C
Press
hPa
Rain since
9am
mm
Dir  Spd
kts
Gust
kts
Height
m
Period
s
Dir
19/11:30pm W 15 23 - - - - - - - 10.4 1012.7 2.2
19/11:00pm W 17 23 - - - - - - - 10.2 1012.8 2.2
19/10:30pm WSW 20 28 - - - - - - - 10.1 1012.4 2.0
19/10:00pm W 17 23 - - - - - - - 9.4 1012.3 2.0
19/09:30pm W 18 27 - - - - - - - 9.1 1012.1 2.0
19/09:00pm W 20 27 - - - - - - Recent precip. 8.7 1011.5 2.0
19/08:30pm W 23 37 - - - - - - - 9.2 1011.0 1.8
19/08:07pm WSW 19 29 - - - - - - - 9.9 1010.7 1.8
19/08:00pm W 21 29 - - - - - - - 9.8 1010.5 1.8
19/07:53pm W 18 29 - - - - - - - 10.3 1010.3 1.8
19/07:30pm W 23 31 - - - - - - - 9.9 1009.7 1.8
19/07:05pm W 20 31 - - - - - - - 9.8 1009.3 1.8
19/07:00pm WSW 21 29 - - - - - - - 10.0 1009.4 1.8
19/06:30pm W 20 28 - - - - - - - 10.0 1008.7 1.8
19/06:22pm W 20 28 - - - - - - - 10.0 1008.7 1.8
19/06:04pm W 21 27 - - - - - - - 9.2 1008.5 1.6
19/06:00pm W 19 26 - - - - - - Recent precip. 9.8 1008.5 1.2
19/05:30pm W 17 25 - - - - - - - 9.4 1008.2 1.2
19/05:14pm W 20 31 - - - - - - - 10.6 1008.1 0.6
19/05:00pm W 19 26 - - - - - - - 10.9 1008.1 0.6
19/04:30pm WNW 19 25 - - - - - - - 11.5 1007.9 0.6
19/04:00pm WNW 21 26 - - - - - - - 10.6 1007.7 0.6
19/03:30pm WNW 21 28 - - - - - - - 10.2 1007.5 0.6
19/03:10pm WNW 19 33 - - - - - - - 9.7 1007.4 0.6
19/03:08pm WNW 18 33 - - - - - - - 9.8 1007.3 0.6
19/03:00pm WNW 19 26 - - - - - - Rain 9.9 1007.7 0.6
19/02:44pm WNW 21 38 - - - - - - - 11.4 1007.1 0.2
19/02:30pm WNW 15 22 - - - - - - - 12.0 1007.4 0.2
19/02:00pm WNW 11 14 - - - - - - - 13.0 1007.6 0.2
19/01:30pm W 18 29 - - - - - - - 11.2 1007.3 0.2
19/01:00pm W 16 29 - - - - - - - 10.7 1006.9 0.2
19/12:59pm W 16 29 - - - - - - - 11.4 1006.7 0.2
19/12:30pm W 18 24 - - - - - - - 11.3 1006.6 0.2
19/12:00pm W 17 23 - - - - - - - 10.8 1006.6 0.2
19/11:44am WSW 28 37 - - - - - - - 8.7 1006.5 0.2
19/11:37am W 22 37 - - - - - - - 9.4 1005.9 0.2
19/11:34am W 17 27 - - - - - - - 10.7 1006.4 0.2
19/11:30am W 17 23 - - - - - - - 10.7 1006.6 0.2
19/11:00am WSW 17 24 - - - - - - - 9.0 1006.3 0.2
19/10:48am WSW 24 32 - - - - - - - 8.0 1006.3 0.2
19/10:37am W 22 35 - - - - - - - 8.3 1005.6 0.2
19/10:35am WNW 19 31 - - - - - - - 9.8 1006.1 0.2
19/10:30am WNW 19 25 - - - - - - - 10.1 1006.0 0.2
19/10:06am W 22 33 - - - - - - - 8.6 1005.7 0.2
19/10:00am WNW 23 33 - - - - - - - 8.8 1005.6 0.2
19/09:37am WNW 21 31 - - - - - - - 9.6 1005.2 0.2
19/09:30am WNW 21 28 - - - - - - - 9.6 1005.3 0.0
19/09:06am WNW 18 29 - - - - - - - 8.1 1005.4 0.0
19/09:00am NW 19 29 - - - - - - - 8.0 1005.3 6.0
19/08:30am WNW 22 32 - - - - - - - 9.3 1005.1 6.0
19/08:02am WNW 23 38 - - - - - - - 8.0 1004.6 6.0
19/08:00am W 22 30 - - - - - - - 8.2 1005.0 6.0
19/07:30am WNW 20 34 - - - - - - - 8.0 1005.0 5.6
19/07:27am WNW 20 34 - - - - - - - 9.3 1004.8 5.2
19/07:00am NW 22 32 - - - - - - - 8.9 1004.4 5.2
19/06:30am WNW 23 34 - - - - - - - 8.7 1004.5 5.2
19/06:24am WNW 20 31 - - - - - - - 9.4 1004.2 5.2
19/06:00am WNW 21 26 - - - - - - - 8.5 1004.2 5.2
19/05:30am W 18 26 - - - - - - - 7.7 1004.4 5.2
19/05:23am W 20 31 - - - - - - - 7.8 1004.4 5.2
19/05:00am WNW 22 28 - - - - - - - 8.7 1004.3 5.2
19/04:39am WNW 19 29 - - - - - - - 8.4 1004.4 5.2
19/04:35am NW 15 27 - - - - - - - 8.2 1004.4 5.0

Other formats

Comma delimited format used in spreadsheet applications
http://www.bom.gov.au/fwo/IDT60701/IDT60701.94974.axf

JavaScript Object Notation format (JSON) in row-major order
http://www.bom.gov.au/fwo/IDT60701/IDT60701.94974.json

Data quality

Most of these data are generated automatically and are frequently updated. Quality checks on data are not normally performed. It is possible for incorrect values to appear. Refer to information at About Latest Weather Observations and please check the disclaimer before using these data.